Terminal Aerodrome Forecast
Issued by NWS

Home | Current Version | Previous Version | Graphics & Text | Print | Product List | Glossary On
Versions: 1 2 3 4 5 6 7 8 9 10 11 12 13 14 15 16 17 18 19 20
000
FTUS43 KGRB 031900 AAA
TAFAUW
TAF AMD
KAUW 031940Z 0320/0418 28010G19KT P6SM -SN BKN018
     FM032300 29010G18KT P6SM BKN025
     FM040300 29012G20KT P6SM SCT100
     FM041600 29013G23KT P6SM BKN025=

USA.gov is the U.S. government's official web portal to all federal, state and local government web resources and services.